Time;durP1;ratioP1;P1;durP2;ratioP2;P2;SDS_P1;SDS_P2;PMS_P1;PMS_P2;Temp;Humidity;BMP_temperature;BMP_pressure;BME280_temperature;BME280_humidity;BME280_pressure;Samples;Min_cycle;Max_cycle;Signal;HPM_P1;HPM_P2
2023/04/03 00:00:38;;;;;;;;;;;;;;;;;;6204455;23;19954;-84
2023/04/03 00:03:04;;;;;;;;;;;;;;;;;;6201968;23;20237;-84
2023/04/03 00:05:30;;;;;;;;;;;;;;;;;;6230163;23;20399;-84
2023/04/03 00:07:56;;;;;;;;;;;;;;;;;;6226690;23;20392;-84
2023/04/03 00:10:22;;;;;;;;;;;;;;;;;;6206304;23;19924;-84
2023/04/03 00:12:48;;;;;;;;;;;;;;;;;;6229385;23;19963;-84
2023/04/03 00:15:14;;;;;;;;;;;;;;;;;;6205340;23;20423;-84
2023/04/03 00:17:40;;;;;;;;;;;;;;;;;;6231583;23;19930;-84
2023/04/03 00:20:06;;;;;;;;;;;;;;;;;;6236058;23;19919;-84
2023/04/03 00:22:32;;;;;;;;;;;;;;;;;;6208786;23;20066;-84
2023/04/03 00:24:58;;;;;;;;;;;;;;;;;;6234369;23;20359;-84
2023/04/03 00:27:24;;;;;;;;;;;;;;;;;;6235847;23;19919;-84
2023/04/03 00:29:50;;;;;;;;;;;;;;;;;;6238053;22;19927;-84
2023/04/03 00:32:16;;;;;;;;;;;;;;;;;;6213758;22;20393;-84
2023/04/03 00:34:41;;;;;;;;;;;;;;;;;;6239402;22;19919;-84
2023/04/03 00:37:07;;;;;;;;;;;;;;;;;;6236246;22;19990;-84
2023/04/03 00:39:33;;;;;;;;;;;;;;;;;;6238060;22;19930;-84
2023/04/03 00:42:00;;;;;;;;;;;;;;;;;;6235471;22;19990;-84
2023/04/03 00:44:26;;;;;;;;;;;;;;;;;;6240629;22;19916;-84
2023/04/03 00:46:51;;;;;;;;;;;;;;;;;;6236097;22;20631;-83
2023/04/03 00:49:17;;;;;;;;;;;;;;;;;;6211111;22;20020;-84
2023/04/03 00:51:43;;;;;;;;;;;;;;;;;;6233502;22;19994;-84
2023/04/03 00:54:09;;;;;;;;;;;;;;;;;;6236272;22;19965;-84
2023/04/03 00:56:35;;;;;;;;;;;;;;;;;;6235311;22;19930;-84
2023/04/03 00:59:01;;;;;;;;;;;;;;;;;;6206633;22;19923;-84
2023/04/03 01:01:27;;;;;;;;;;;;;;;;;;6233623;22;20336;-84
2023/04/03 01:03:54;;;;;;;;;;;;;;;;;;6232679;22;19942;-85
2023/04/03 01:06:20;;;;;;;;;;;;;;;;;;6209266;22;19990;-84
2023/04/03 01:08:46;;;;;;;;;;;;;;;;;;6205825;22;19923;-84
2023/04/03 01:11:12;;;;;;;;;;;;;;;;;;6262765;22;20327;-84
2023/04/03 01:13:39;;;;;;;;;;;;;;;;;;6235807;22;20316;-84
2023/04/03 01:16:05;;;;;;;;;;;;;;;;;;6233418;22;20843;-85
2023/04/03 01:18:31;;;;;;;;;;;;;;;;;;6237674;22;19977;-85
2023/04/03 01:20:57;;;;;;;;;;;;;;;;;;6234675;22;19915;-85
2023/04/03 01:23:23;;;;;;;;;;;;;;;;;;6216811;22;19923;-84
2023/04/03 01:25:48;;;;;;;;;;;;;;;;;;6208938;22;19993;-85
2023/04/03 01:28:15;;;;;;;;;;;;;;;;;;6237794;22;19915;-85
2023/04/03 01:30:41;;;;;;;;;;;;;;;;;;6240258;22;19927;-85
2023/04/03 01:33:07;;;;;;;;;;;;;;;;;;6236520;22;20041;-86
2023/04/03 01:35:33;;;;;;;;;;;;;;;;;;6212057;22;19915;-85
2023/04/03 01:37:59;;;;;;;;;;;;;;;;;;6235884;22;19915;-85
2023/04/03 01:40:25;;;;;;;;;;;;;;;;;;6237812;22;19990;-86
2023/04/03 01:42:51;;;;;;;;;;;;;;;;;;6209957;22;19929;-86
2023/04/03 01:45:17;;;;;;;;;;;;;;;;;;6238117;22;19915;-85
2023/04/03 01:47:43;;;;;;;;;;;;;;;;;;6238963;22;19937;-85
2023/04/03 01:50:09;;;;;;;;;;;;;;;;;;6210109;22;19919;-85
2023/04/03 01:52:35;;;;;;;;;;;;;;;;;;6212949;22;19926;-85
2023/04/03 01:55:01;;;;;;;;;;;;;;;;;;6209885;22;19924;-85
2023/04/03 01:57:27;;;;;;;;;;;;;;;;;;6212724;22;19919;-85
2023/04/03 01:59:53;;;;;;;;;;;;;;;;;;6210516;22;19919;-85
2023/04/03 02:02:20;;;;;;;;;;;;;;;;;;6237963;22;20356;-85
2023/04/03 02:04:46;;;;;;;;;;;;;;;;;;6234759;22;19946;-85
2023/04/03 02:07:12;;;;;;;;;;;;;;;;;;6212209;22;19954;-85
2023/04/03 02:09:37;;;;;;;;;;;;;;;;;;6213154;22;19929;-85
2023/04/03 02:12:03;;;;;;;;;;;;;;;;;;6235525;22;20393;-85
2023/04/03 02:14:29;;;;;;;;;;;;;;;;;;6237441;22;19919;-85
2023/04/03 02:16:55;;;;;;;;;;;;;;;;;;6209994;22;19994;-85
2023/04/03 02:19:21;;;;;;;;;;;;;;;;;;6238338;22;19918;-85
2023/04/03 02:21:47;;;;;;;;;;;;;;;;;;6235809;22;19926;-85
2023/04/03 02:24:13;;;;;;;;;;;;;;;;;;6238310;22;20040;-85
2023/04/03 02:26:39;;;;;;;;;;;;;;;;;;6212636;22;19919;-85
2023/04/03 02:29:05;;;;;;;;;;;;;;;;;;6210083;22;20342;-85
2023/04/03 02:31:31;;;;;;;;;;;;;;;;;;6212511;22;19998;-85
2023/04/03 02:33:57;;;;;;;;;;;;;;;;;;6212124;22;19926;-85
2023/04/03 02:36:23;;;;;;;;;;;;;;;;;;6211777;22;19923;-85
2023/04/03 02:38:49;;;;;;;;;;;;;;;;;;6209389;22;19919;-85
2023/04/03 02:41:15;;;;;;;;;;;;;;;;;;6212496;22;20215;-85
2023/04/03 02:43:41;;;;;;;;;;;;;;;;;;6238176;22;20340;-85
2023/04/03 02:46:07;;;;;;;;;;;;;;;;;;6235590;22;19994;-85
2023/04/03 02:48:33;;;;;;;;;;;;;;;;;;6213368;22;20336;-85
2023/04/03 02:50:59;;;;;;;;;;;;;;;;;;6234678;22;19925;-85
2023/04/03 02:53:25;;;;;;;;;;;;;;;;;;6237452;22;19919;-85
2023/04/03 02:55:51;;;;;;;;;;;;;;;;;;6210569;22;19925;-86
2023/04/03 02:58:17;;;;;;;;;;;;;;;;;;6213409;22;19919;-85
2023/04/03 03:00:43;;;;;;;;;;;;;;;;;;6238370;22;19951;-85
2023/04/03 03:03:09;;;;;;;;;;;;;;;;;;6210625;22;19969;-85
2023/04/03 03:05:36;;;;;;;;;;;;;;;;;;6236479;22;19915;-86
2023/04/03 03:08:02;;;;;;;;;;;;;;;;;;6231696;22;19915;-86
2023/04/03 03:10:27;;;;;;;;;;;;;;;;;;6214946;22;19994;-86
2023/04/03 03:12:54;;;;;;;;;;;;;;;;;;6236750;22;19919;-86
2023/04/03 03:15:20;;;;;;;;;;;;;;;;;;6237209;22;20336;-86
2023/04/03 03:17:46;;;;;;;;;;;;;;;;;;6209317;22;19922;-86
2023/04/03 03:20:13;;;;;;;;;;;;;;;;;;6238564;22;20037;-86
2023/04/03 03:22:39;;;;;;;;;;;;;;;;;;6238134;22;19926;-85
2023/04/03 03:25:05;;;;;;;;;;;;;;;;;;6210122;22;19934;-86
2023/04/03 03:27:31;;;;;;;;;;;;;;;;;;6211864;22;19962;-85
2023/04/03 03:29:57;;;;;;;;;;;;;;;;;;6210630;22;20328;-87
2023/04/03 03:32:23;;;;;;;;;;;;;;;;;;6213325;22;19926;-86
2023/04/03 03:34:49;;;;;;;;;;;;;;;;;;6209946;22;19919;-85
2023/04/03 03:37:15;;;;;;;;;;;;;;;;;;6213187;22;19916;-85
2023/04/03 03:39:41;;;;;;;;;;;;;;;;;;6238340;22;19966;-86
2023/04/03 03:42:07;;;;;;;;;;;;;;;;;;6210544;22;19961;-86
2023/04/03 03:44:33;;;;;;;;;;;;;;;;;;6237000;22;19915;-86
2023/04/03 03:46:59;;;;;;;;;;;;;;;;;;6234606;22;19923;-85
2023/04/03 03:49:25;;;;;;;;;;;;;;;;;;6211268;22;19916;-85
2023/04/03 03:51:51;;;;;;;;;;;;;;;;;;6235382;22;20045;-85
2023/04/03 03:54:17;;;;;;;;;;;;;;;;;;6237364;22;19964;-85
2023/04/03 03:56:43;;;;;;;;;;;;;;;;;;6238153;22;19994;-85
2023/04/03 03:59:09;;;;;;;;;;;;;;;;;;6236917;22;19915;-85
2023/04/03 04:01:35;;;;;;;;;;;;;;;;;;6238574;22;20362;-85
2023/04/03 04:04:01;;;;;;;;;;;;;;;;;;6234443;22;19955;-85
2023/04/03 04:06:27;;;;;;;;;;;;;;;;;;6237882;22;19919;-85
2023/04/03 04:08:53;;;;;;;;;;;;;;;;;;6210095;22;19923;-86
2023/04/03 04:11:21;;;;;;;;;;;;;;;;;;6236839;22;20233;-85
2023/04/03 04:13:47;;;;;;;;;;;;;;;;;;6235214;22;19915;-86
2023/04/03 04:16:13;;;;;;;;;;;;;;;;;;6235946;22;20251;-86
2023/04/03 04:18:39;;;;;;;;;;;;;;;;;;6213652;22;19934;-85
2023/04/03 04:21:05;;;;;;;;;;;;;;;;;;6235408;22;20306;-85
2023/04/03 04:23:31;;;;;;;;;;;;;;;;;;6213974;22;20419;-85
2023/04/03 04:25:57;;;;;;;;;;;;;;;;;;6236444;22;19919;-85
2023/04/03 04:28:23;;;;;;;;;;;;;;;;;;6238841;22;19990;-85
2023/04/03 04:30:49;;;;;;;;;;;;;;;;;;6235791;22;20415;-85
2023/04/03 04:33:16;;;;;;;;;;;;;;;;;;6239896;22;19922;-85
2023/04/03 04:35:41;;;;;;;;;;;;;;;;;;6238597;22;20237;-85
2023/04/03 04:38:08;;;;;;;;;;;;;;;;;;6210717;22;19973;-85
2023/04/03 04:40:34;;;;;;;;;;;;;;;;;;6238366;22;19969;-86
2023/04/03 04:43:00;;;;;;;;;;;;;;;;;;6234048;22;20370;-86
2023/04/03 04:45:26;;;;;;;;;;;;;;;;;;6214125;22;19923;-86
2023/04/03 04:47:52;;;;;;;;;;;;;;;;;;6210264;22;19919;-85
2023/04/03 04:50:18;;;;;;;;;;;;;;;;;;6214494;22;19930;-85
2023/04/03 04:52:47;;;;;;;;;;;;;;;;;;6239693;22;19919;-85
2023/04/03 04:55:13;;;;;;;;;;;;;;;;;;6238320;22;19925;-85
2023/04/03 04:57:39;;;;;;;;;;;;;;;;;;6240395;22;19919;-85
2023/04/03 05:00:05;;;;;;;;;;;;;;;;;;6236382;22;19973;-85
2023/04/03 05:02:31;;;;;;;;;;;;;;;;;;6211986;22;19923;-85
2023/04/03 05:04:57;;;;;;;;;;;;;;;;;;6235820;22;19919;-85
2023/04/03 05:07:23;;;;;;;;;;;;;;;;;;6240941;22;20244;-86
2023/04/03 05:09:49;;;;;;;;;;;;;;;;;;6213561;22;19924;-86
2023/04/03 05:12:15;;;;;;;;;;;;;;;;;;6239554;22;19968;-85
2023/04/03 05:14:41;;;;;;;;;;;;;;;;;;6213091;22;20440;-86
2023/04/03 05:17:07;;;;;;;;;;;;;;;;;;6207560;22;19927;-86
2023/04/03 05:19:33;;;;;;;;;;;;;;;;;;6209324;22;19930;-86
2023/04/03 05:21:59;;;;;;;;;;;;;;;;;;6203585;22;19969;-87
2023/04/03 05:24:26;;;;;;;;;;;;;;;;;;6232290;22;19919;-85
2023/04/03 05:26:51;;;;;;;;;;;;;;;;;;6230901;22;19941;-86
2023/04/03 05:29:17;;;;;;;;;;;;;;;;;;6209886;22;20333;-85
2023/04/03 05:31:43;;;;;;;;;;;;;;;;;;6229299;23;19923;-85
2023/04/03 05:34:09;;;;;;;;;;;;;;;;;;6228967;23;19915;-85
2023/04/03 05:36:35;;;;;;;;;;;;;;;;;;6229215;23;19915;-85
2023/04/03 05:39:01;;;;;;;;;;;;;;;;;;6203600;23;20341;-86
2023/04/03 05:41:27;;;;;;;;;;;;;;;;;;6204092;23;19923;-86
2023/04/03 05:43:53;;;;;;;;;;;;;;;;;;6231013;23;19926;-85
2023/04/03 05:46:20;;;;;;;;;;;;;;;;;;6206074;23;19951;-86
2023/04/03 05:48:46;;;;;;;;;;;;;;;;;;6230298;23;19927;-86
2023/04/03 05:51:12;;;;;;;;;;;;;;;;;;6205602;23;19927;-85
2023/04/03 05:53:38;;;;;;;;;;;;;;;;;;6207454;23;19920;-85
2023/04/03 05:56:04;;;;;;;;;;;;;;;;;;6228430;23;19919;-85
2023/04/03 05:58:30;;;;;;;;;;;;;;;;;;6204370;23;19920;-85
2023/04/03 06:00:57;;;;;;;;;;;;;;;;;;6228486;23;19920;-85
2023/04/03 06:03:22;;;;;;;;;;;;;;;;;;6234436;23;19939;-85
2023/04/03 06:05:49;;;;;;;;;;;;;;;;;;6221925;23;20344;-85
2023/04/03 06:08:15;;;;;;;;;;;;;;;;;;6230440;23;19951;-84
2023/04/03 06:13:44;;;;;;;;;;;;;;;;;;6233261;22;19926;-84
2023/04/03 06:16:45;;;;;;;;;;;;;;;;;;6245537;22;19923;-86
2023/04/03 06:19:55;;;;;;;;;;;;;;;;;;6131533;23;19916;-86
2023/04/03 06:22:52;;;;;;;;;;;;;;;;;;6121505;23;19925;-85
2023/04/03 06:32:30;;;;;;;;;;;;;;;;;;;;;
2023/04/03 06:43:47;;;;;;;;;;;;;;;;;;6073730;23;19921;-84
2023/04/03 06:47:10;;;;;;;;;;;;;;;;;;6087264;23;20378;-84
2023/04/03 06:49:25;;;;;;;;;;;;;;;;;;6103169;23;20581;-84
2023/04/03 06:55:20;;;;;;;;;;;;;;;;;;6111262;23;19986;-84
2023/04/03 06:58:17;;;;;;;;;;;;;;;;;;6182255;23;20578;-84
2023/04/03 07:00:59;;;;;;;;;;;;;;;;;;6142952;23;19920;-84
2023/04/03 07:10:20;;;;;;;;;;;;;;;;;;6007093;23;19958;-83
2023/04/03 07:13:05;;;;;;;;;;;;;;;;;;6093280;23;20459;-84
2023/04/03 07:15:31;;;;;;;;;;;;;;;;;;6139667;23;19931;-84
2023/04/03 07:17:57;;;;;;;;;;;;;;;;;;6145400;23;19917;-83
2023/04/03 07:20:23;;;;;;;;;;;;;;;;;;6149497;23;19975;-84
2023/04/03 07:22:49;;;;;;;;;;;;;;;;;;6145798;23;20337;-84
2023/04/03 07:25:15;;;;;;;;;;;;;;;;;;6123419;23;19931;-84
2023/04/03 07:27:40;;;;;;;;;;;;;;;;;;6122864;23;19924;-83
2023/04/03 07:30:07;;;;;;;;;;;;;;;;;;6170603;23;19920;-84
2023/04/03 07:32:33;;;;;;;;;;;;;;;;;;6169298;23;19994;-84
2023/04/03 07:34:59;;;;;;;;;;;;;;;;;;6172864;22;19966;-84
2023/04/03 07:37:26;;;;;;;;;;;;;;;;;;6233945;23;19924;-84
2023/04/03 07:39:52;;;;;;;;;;;;;;;;;;6232505;23;19927;-84
2023/04/03 07:42:18;;;;;;;;;;;;;;;;;;6210187;23;19916;-84
2023/04/03 07:44:47;;;;;;;;;;;;;;;;;;6208441;23;19994;-84
2023/04/03 07:47:16;;;;;;;;;;;;;;;;;;6234593;23;20241;-84
2023/04/03 07:49:42;;;;;;;;;;;;;;;;;;6235592;23;19920;-84
2023/04/03 07:52:08;;;;;;;;;;;;;;;;;;6233206;23;19926;-83
2023/04/03 07:54:34;;;;;;;;;;;;;;;;;;6208948;23;19923;-84
2023/04/03 07:57:01;;;;;;;;;;;;;;;;;;6204959;23;20307;-84
2023/04/03 07:59:27;;;;;;;;;;;;;;;;;;6234237;23;19951;-84
2023/04/03 08:01:53;;;;;;;;;;;;;;;;;;6207757;23;20399;-84
2023/04/03 08:04:19;;;;;;;;;;;;;;;;;;6208120;23;19961;-84
2023/04/03 08:06:45;;;;;;;;;;;;;;;;;;6233181;23;19916;-84
2023/04/03 08:09:11;;;;;;;;;;;;;;;;;;6207909;23;20660;-85
2023/04/03 08:11:37;;;;;;;;;;;;;;;;;;6233158;23;19926;-84
2023/04/03 08:14:03;;;;;;;;;;;;;;;;;;6207750;23;19919;-84
2023/04/03 08:16:29;;;;;;;;;;;;;;;;;;6233195;23;19915;-84
2023/04/03 08:18:55;;;;;;;;;;;;;;;;;;6206495;23;20225;-84
2023/04/03 08:21:21;;;;;;;;;;;;;;;;;;6234408;23;20229;-85
2023/04/03 08:23:47;;;;;;;;;;;;;;;;;;6205211;23;19915;-85
2023/04/03 08:26:13;;;;;;;;;;;;;;;;;;6206724;23;19920;-84
2023/04/03 08:28:39;;;;;;;;;;;;;;;;;;6236756;23;19920;-84
2023/04/03 08:31:06;;;;;;;;;;;;;;;;;;6236274;22;20441;-85
2023/04/03 08:33:31;;;;;;;;;;;;;;;;;;6238609;22;19923;-84
2023/04/03 08:35:57;;;;;;;;;;;;;;;;;;6210393;22;20560;-85
2023/04/03 08:38:23;;;;;;;;;;;;;;;;;;6213759;22;19999;-85
2023/04/03 08:40:50;;;;;;;;;;;;;;;;;;6234474;22;19919;-85
2023/04/03 08:43:16;;;;;;;;;;;;;;;;;;6236409;22;19990;-85
2023/04/03 08:45:42;;;;;;;;;;;;;;;;;;6239131;22;20366;-85
2023/04/03 08:48:08;;;;;;;;;;;;;;;;;;6266445;22;20320;-85
2023/04/03 08:50:35;;;;;;;;;;;;;;;;;;6240229;22;19946;-85
2023/04/03 09:09:02;;;;;;;;;;;;;;;;;;6030349;23;19925;-85
2023/04/03 09:14:42;;;;;;;;;;;;;;;;;;;;;
2023/04/03 09:17:51;;;;;;;;;;;;;;;;;;6154919;23;19950;-88
2023/04/03 09:23:50;;;;;;;;;;;;;;;;;;6123864;23;20365;-87
2023/04/03 09:29:36;;;;;;;;;;;;;;;;;;6197007;23;19959;-86
2023/04/03 09:32:21;;;;;;;;;;;;;;;;;;;;;
2023/04/03 09:34:58;;;;;;;;;;;;;;;;;;6111030;23;19916;-87
2023/04/03 09:37:52;;;;;;;;;;;;;;;;;;6072767;23;20343;-87
2023/04/03 09:46:57;;;;;;;;;;;;;;;;;;6229384;23;20411;-86
2023/04/03 09:52:47;;;;;;;;;;;;;;;;;;6238660;23;20093;-88
2023/04/03 09:55:50;;;;;;;;;;;;;;;;;;;;;
2023/04/03 10:04:14;;;;;;;;;;;;;;;;;;6204679;23;20002;-87
2023/04/03 10:07:21;;;;;;;;;;;;;;;;;;6204782;23;19916;-86
2023/04/03 10:13:20;;;;;;;;;;;;;;;;;;;;;
2023/04/03 10:28:14;;;;;;;;;;;;;;;;;;6251358;22;19926;-86
2023/04/03 10:31:09;;;;;;;;;;;;;;;;;;;;;
2023/04/03 10:34:03;;;;;;;;;;;;;;;;;;;;;
2023/04/03 10:45:41;;;;;;;;;;;;;;;;;;6303365;22;19942;-86
2023/04/03 10:48:30;;;;;;;;;;;;;;;;;;;;;
2023/04/03 10:51:03;;;;;;;;;;;;;;;;;;6290051;22;19919;-87
2023/04/03 10:53:48;;;;;;;;;;;;;;;;;;;;;
2023/04/03 10:56:27;;;;;;;;;;;;;;;;;;;;;
2023/04/03 10:59:20;;;;;;;;;;;;;;;;;;6234867;23;20106;-86
2023/04/03 11:02:06;;;;;;;;;;;;;;;;;;6201120;23;19927;-87
2023/04/03 11:04:42;;;;;;;;;;;;;;;;;;6234186;23;19920;-87
2023/04/03 11:07:31;;;;;;;;;;;;;;;;;;6231800;23;20301;-86
2023/04/03 11:10:17;;;;;;;;;;;;;;;;;;6229583;23;20002;-86
2023/04/03 11:15:38;;;;;;;;;;;;;;;;;;6206082;23;19916;-87
2023/04/03 11:18:29;;;;;;;;;;;;;;;;;;6232831;23;19918;-87
2023/04/03 11:21:04;;;;;;;;;;;;;;;;;;6221706;23;19935;-87
2023/04/03 11:30:21;;;;;;;;;;;;;;;;;;6184175;23;19982;-87
2023/04/03 11:33:01;;;;;;;;;;;;;;;;;;6143923;23;19924;-88
2023/04/03 11:35:32;;;;;;;;;;;;;;;;;;6217693;22;20005;-87
2023/04/03 11:53:11;;;;;;;;;;;;;;;;;;6181353;23;19978;-87
2023/04/03 11:55:47;;;;;;;;;;;;;;;;;;6146986;23;19920;-87
2023/04/03 11:58:32;;;;;;;;;;;;;;;;;;6230057;22;19985;-85
2023/04/03 12:00:58;;;;;;;;;;;;;;;;;;6267215;22;20332;-84
2023/04/03 12:03:24;;;;;;;;;;;;;;;;;;6242903;22;19919;-84
2023/04/03 12:05:50;;;;;;;;;;;;;;;;;;6264218;22;20002;-84
2023/04/03 12:08:17;;;;;;;;;;;;;;;;;;6242013;22;19951;-85
2023/04/03 12:10:43;;;;;;;;;;;;;;;;;;6246140;22;20229;-85
2023/04/03 12:13:09;;;;;;;;;;;;;;;;;;6238998;22;19990;-83
2023/04/03 12:15:35;;;;;;;;;;;;;;;;;;6293060;22;20268;-83
2023/04/03 12:18:02;;;;;;;;;;;;;;;;;;6266528;22;19926;-83
2023/04/03 12:20:28;;;;;;;;;;;;;;;;;;6238966;22;19919;-83
2023/04/03 12:22:54;;;;;;;;;;;;;;;;;;6290756;22;19987;-83
2023/04/03 12:25:20;;;;;;;;;;;;;;;;;;6267126;22;19926;-83
2023/04/03 12:27:47;;;;;;;;;;;;;;;;;;6264020;22;19919;-84
2023/04/03 12:30:13;;;;;;;;;;;;;;;;;;6269586;22;19926;-83
2023/04/03 12:32:40;;;;;;;;;;;;;;;;;;6267539;22;20247;-83
2023/04/03 12:35:06;;;;;;;;;;;;;;;;;;6265582;22;19954;-83
2023/04/03 12:37:32;;;;;;;;;;;;;;;;;;6268054;22;20344;-83
2023/04/03 12:39:58;;;;;;;;;;;;;;;;;;6266223;22;19950;-83
2023/04/03 12:42:24;;;;;;;;;;;;;;;;;;6265853;22;19954;-83
2023/04/03 12:44:50;;;;;;;;;;;;;;;;;;6264934;22;20305;-83
2023/04/03 12:47:16;;;;;;;;;;;;;;;;;;6289821;22;19950;-83
2023/04/03 12:49:42;;;;;;;;;;;;;;;;;;6240794;22;19945;-83
2023/04/03 12:52:08;;;;;;;;;;;;;;;;;;6266783;22;20336;-83
2023/04/03 12:54:34;;;;;;;;;;;;;;;;;;6243390;22;19941;-83
2023/04/03 12:57:00;;;;;;;;;;;;;;;;;;6265064;22;20400;-83
2023/04/03 12:59:26;;;;;;;;;;;;;;;;;;6266101;22;19926;-83
2023/04/03 13:01:52;;;;;;;;;;;;;;;;;;6296808;22;19948;-83
2023/04/03 13:04:18;;;;;;;;;;;;;;;;;;6273954;22;20190;-83
2023/04/03 13:06:46;;;;;;;;;;;;;;;;;;6270127;22;19921;-83
2023/04/03 13:09:12;;;;;;;;;;;;;;;;;;6272897;22;19922;-83
2023/04/03 13:11:37;;;;;;;;;;;;;;;;;;6271734;22;19969;-83
2023/04/03 13:14:05;;;;;;;;;;;;;;;;;;6273731;22;19915;-83
2023/04/03 13:16:31;;;;;;;;;;;;;;;;;;6276045;22;20315;-83
2023/04/03 13:18:57;;;;;;;;;;;;;;;;;;6327679;22;19989;-83
2023/04/03 13:21:23;;;;;;;;;;;;;;;;;;6271664;22;19962;-83
2023/04/03 13:23:49;;;;;;;;;;;;;;;;;;6294493;22;19925;-83
2023/04/03 13:26:16;;;;;;;;;;;;;;;;;;6300497;22;19964;-83
2023/04/03 13:28:42;;;;;;;;;;;;;;;;;;6274985;22;19914;-83
2023/04/03 13:31:10;;;;;;;;;;;;;;;;;;6325703;22;20239;-83
2023/04/03 13:33:38;;;;;;;;;;;;;;;;;;6330252;22;20301;-83
2023/04/03 13:36:04;;;;;;;;;;;;;;;;;;6326947;22;19924;-83
2023/04/03 13:38:36;;;;;;;;;;;;;;;;;;6330645;22;19919;-83
2023/04/03 13:41:02;;;;;;;;;;;;;;;;;;6298265;22;19921;-83
2023/04/03 13:43:28;;;;;;;;;;;;;;;;;;6301050;22;19950;-83
2023/04/03 13:45:54;;;;;;;;;;;;;;;;;;6327596;22;19967;-83
2023/04/03 13:48:22;;;;;;;;;;;;;;;;;;6330190;22;19950;-83
2023/04/03 13:50:48;;;;;;;;;;;;;;;;;;6326243;22;19919;-83
2023/04/03 13:53:14;;;;;;;;;;;;;;;;;;6331571;22;19993;-82
2023/04/03 13:59:16;;;;;;;;;;;;;;;;;;6207114;23;19927;-83
2023/04/03 14:02:16;;;;;;;;;;;;;;;;;;6170215;23;19996;-83
2023/04/03 14:08:22;;;;;;;;;;;;;;;;;;;;;
2023/04/03 14:23:57;;;;;;;;;;;;;;;;;;6163501;23;20388;-83
2023/04/03 14:27:06;;;;;;;;;;;;;;;;;;;;;
2023/04/03 14:39:30;;;;;;;;;;;;;;;;;;;;;
2023/04/03 14:45:19;;;;;;;;;;;;;;;;;;;;;
2023/04/03 14:51:07;;;;;;;;;;;;;;;;;;6055399;23;19957;-83
2023/04/03 14:59:21;;;;;;;;;;;;;;;;;;6262094;22;19957;31
2023/04/03 15:01:47;;;;;;;;;;;;;;;;;;6198147;23;19978;-83
2023/04/03 15:04:13;;;;;;;;;;;;;;;;;;6183165;23;19920;-83
2023/04/03 15:06:39;;;;;;;;;;;;;;;;;;6180673;23;20022;-83
2023/04/03 15:24:30;;;;;;;;;;;;;;;;;;6237714;22;19922;-84
2023/04/03 15:33:33;;;;;;;;;;;;;;;;;;6219616;22;19972;-83
2023/04/03 15:39:28;;;;;;;;;;;;;;;;;;;;;
2023/04/03 15:42:19;;;;;;;;;;;;;;;;;;;;;
2023/04/03 15:45:00;;;;;;;;;;;;;;;;;;6197477;23;19969;-84
2023/04/03 15:50:57;;;;;;;;;;;;;;;;;;;;;
2023/04/03 16:06:00;;;;;;;;;;;;;;;;;;6115759;23;19920;-84
2023/04/03 16:09:01;;;;;;;;;;;;;;;;;;;;;
2023/04/03 16:24:29;;;;;;;;;;;;;;;;;;6168987;23;19916;-83
2023/04/03 16:27:01;;;;;;;;;;;;;;;;;;6122865;23;19939;-83
2023/04/03 16:29:29;;;;;;;;;;;;;;;;;;6144368;23;19927;-84
2023/04/03 16:32:01;;;;;;;;;;;;;;;;;;6172967;23;20380;-84
2023/04/03 16:34:39;;;;;;;;;;;;;;;;;;6112221;23;19925;-84
2023/04/03 16:37:14;;;;;;;;;;;;;;;;;;6063269;23;19928;-83
2023/04/03 16:39:40;;;;;;;;;;;;;;;;;;6064488;23;19917;-83
2023/04/03 16:42:06;;;;;;;;;;;;;;;;;;6057094;23;19992;-83
2023/04/03 16:44:49;;;;;;;;;;;;;;;;;;6062672;23;19921;-83
2023/04/03 16:47:31;;;;;;;;;;;;;;;;;;;;;
2023/04/03 16:50:18;;;;;;;;;;;;;;;;;;6080504;23;19980;-83
2023/04/03 16:52:49;;;;;;;;;;;;;;;;;;6055011;23;19921;-83
2023/04/03 16:55:18;;;;;;;;;;;;;;;;;;6083380;23;19917;-83
2023/04/03 16:58:01;;;;;;;;;;;;;;;;;;6080474;23;19932;-83
2023/04/03 17:00:39;;;;;;;;;;;;;;;;;;6105498;23;19920;-83
2023/04/03 17:17:00;;;;;;;;;;;;;;;;;;6295459;22;19933;-85
2023/04/03 17:19:40;;;;;;;;;;;;;;;;;;6238522;22;19965;-86
2023/04/03 17:28:15;;;;;;;;;;;;;;;;;;6076233;23;20237;-87
2023/04/03 17:31:05;;;;;;;;;;;;;;;;;;;;;
2023/04/03 17:40:46;;;;;;;;;;;;;;;;;;;;;
2023/04/03 17:43:24;;;;;;;;;;;;;;;;;;6054794;22;19914;-82
2023/04/03 17:45:51;;;;;;;;;;;;;;;;;;6240202;22;19927;-82
2023/04/03 17:48:16;;;;;;;;;;;;;;;;;;6244426;22;19923;-83
2023/04/03 17:50:42;;;;;;;;;;;;;;;;;;6244968;22;20464;-82
2023/04/03 17:53:09;;;;;;;;;;;;;;;;;;6244442;22;19931;-82
2023/04/03 17:55:35;;;;;;;;;;;;;;;;;;6245609;22;20387;-82
2023/04/03 17:58:01;;;;;;;;;;;;;;;;;;6242424;22;19926;-85
2023/04/03 18:00:27;;;;;;;;;;;;;;;;;;6271108;22;20260;-85
2023/04/03 18:02:53;;;;;;;;;;;;;;;;;;6266964;22;19914;-85
2023/04/03 18:05:19;;;;;;;;;;;;;;;;;;6296686;22;20367;-85
2023/04/03 18:07:45;;;;;;;;;;;;;;;;;;6269442;22;19919;-85
2023/04/03 18:10:11;;;;;;;;;;;;;;;;;;6269792;22;19927;-85
2023/04/03 18:12:37;;;;;;;;;;;;;;;;;;6269247;22;19919;-85
2023/04/03 18:15:03;;;;;;;;;;;;;;;;;;6266810;22;20001;-85
2023/04/03 18:17:29;;;;;;;;;;;;;;;;;;6295914;22;19919;-85
2023/04/03 18:19:55;;;;;;;;;;;;;;;;;;6265659;22;19918;-85
2023/04/03 18:22:21;;;;;;;;;;;;;;;;;;6296496;22;20389;-85
2023/04/03 18:24:47;;;;;;;;;;;;;;;;;;6239286;22;19995;-85
2023/04/03 18:27:13;;;;;;;;;;;;;;;;;;6244418;22;19914;-85
2023/04/03 18:29:41;;;;;;;;;;;;;;;;;;6269368;22;20110;-85
2023/04/03 18:32:07;;;;;;;;;;;;;;;;;;6266779;22;19919;-85
2023/04/03 18:34:33;;;;;;;;;;;;;;;;;;6243959;22;19919;-85
2023/04/03 18:36:59;;;;;;;;;;;;;;;;;;6266772;22;19922;-85
2023/04/03 18:39:25;;;;;;;;;;;;;;;;;;6243437;22;19922;-82
2023/04/03 18:41:51;;;;;;;;;;;;;;;;;;6268624;22;19949;-82
2023/04/03 18:44:17;;;;;;;;;;;;;;;;;;6270937;22;19926;-85
2023/04/03 18:46:43;;;;;;;;;;;;;;;;;;6268875;22;19919;-85
2023/04/03 18:49:09;;;;;;;;;;;;;;;;;;6242344;22;19919;-85
2023/04/03 18:51:37;;;;;;;;;;;;;;;;;;6271182;22;19919;-85
2023/04/03 18:54:03;;;;;;;;;;;;;;;;;;6269330;22;19923;-85
2023/04/03 18:56:29;;;;;;;;;;;;;;;;;;6273109;22;19951;-85
2023/04/03 18:58:55;;;;;;;;;;;;;;;;;;6245279;22;19994;-85
2023/04/03 19:01:21;;;;;;;;;;;;;;;;;;6271931;22;19915;-85
2023/04/03 19:03:47;;;;;;;;;;;;;;;;;;6244221;22;19919;-85
2023/04/03 19:06:13;;;;;;;;;;;;;;;;;;6296306;22;19919;-85
2023/04/03 19:08:39;;;;;;;;;;;;;;;;;;6295410;22;20413;-85
2023/04/03 19:11:05;;;;;;;;;;;;;;;;;;6242471;22;20311;-85
2023/04/03 19:13:32;;;;;;;;;;;;;;;;;;6246689;22;20420;-84
2023/04/03 19:15:58;;;;;;;;;;;;;;;;;;6266909;22;19986;-82
2023/04/03 19:18:25;;;;;;;;;;;;;;;;;;6243834;22;19919;-82
2023/04/03 19:20:54;;;;;;;;;;;;;;;;;;6266354;22;19925;-82
2023/04/03 19:23:27;;;;;;;;;;;;;;;;;;6245032;22;19950;-82
2023/04/03 19:32:07;;;;;;;;;;;;;;;;;;6163330;23;20202;-82
2023/04/03 19:34:36;;;;;;;;;;;;;;;;;;6231212;22;19968;-82
2023/04/03 19:37:27;;;;;;;;;;;;;;;;;;6259123;22;19919;-82
2023/04/03 19:40:02;;;;;;;;;;;;;;;;;;6269473;22;19920;-84
2023/04/03 19:42:41;;;;;;;;;;;;;;;;;;6272628;22;20017;-85
2023/04/03 19:45:27;;;;;;;;;;;;;;;;;;6200942;23;19970;-85
2023/04/03 19:48:00;;;;;;;;;;;;;;;;;;6179640;23;20296;-85
2023/04/03 19:50:28;;;;;;;;;;;;;;;;;;6202066;23;19924;-85
2023/04/03 19:53:18;;;;;;;;;;;;;;;;;;6208161;23;19935;-84
2023/04/03 19:56:15;;;;;;;;;;;;;;;;;;;;;
2023/04/03 20:31:34;;;;;;;;;;;;;;;;;;6299007;22;19926;-93
2023/04/03 20:34:03;;;;;;;;;;;;;;;;;;6242914;22;19922;-93
2023/04/03 20:36:29;;;;;;;;;;;;;;;;;;6242527;22;20038;-93
2023/04/03 20:38:56;;;;;;;;;;;;;;;;;;6242997;22;20247;-94
2023/04/03 20:41:22;;;;;;;;;;;;;;;;;;6243639;22;19919;-92
2023/04/03 20:43:48;;;;;;;;;;;;;;;;;;6241138;22;19919;-93
2023/04/03 20:46:18;;;;;;;;;;;;;;;;;;6241917;22;19919;-94
2023/04/03 20:48:44;;;;;;;;;;;;;;;;;;6242424;22;19919;-94
2023/04/03 20:51:11;;;;;;;;;;;;;;;;;;6243492;22;20013;-92
2023/04/03 20:53:37;;;;;;;;;;;;;;;;;;6269893;22;19956;-93
2023/04/03 20:56:04;;;;;;;;;;;;;;;;;;6244443;22;19919;-92
2023/04/03 20:58:31;;;;;;;;;;;;;;;;;;6248103;22;19951;-93
2023/04/03 21:01:00;;;;;;;;;;;;;;;;;;6238417;22;19969;-92
2023/04/03 21:03:26;;;;;;;;;;;;;;;;;;6243981;22;19983;-93
2023/04/03 21:05:52;;;;;;;;;;;;;;;;;;6240580;22;19919;-93
2023/04/03 21:08:20;;;;;;;;;;;;;;;;;;6241420;22;20132;-92
2023/04/03 21:10:47;;;;;;;;;;;;;;;;;;6239431;22;20003;-92
2023/04/03 21:13:16;;;;;;;;;;;;;;;;;;6243541;22;19922;-94
2023/04/03 21:15:44;;;;;;;;;;;;;;;;;;6296170;22;19919;-93
2023/04/03 21:18:10;;;;;;;;;;;;;;;;;;6231413;22;19926;-94
2023/04/03 21:20:36;;;;;;;;;;;;;;;;;;6240936;22;19921;-93
2023/04/03 21:23:02;;;;;;;;;;;;;;;;;;6241245;22;19915;-93
2023/04/03 21:25:28;;;;;;;;;;;;;;;;;;6243920;22;19972;-94
2023/04/03 21:27:57;;;;;;;;;;;;;;;;;;6239054;22;20290;-94
2023/04/03 21:30:23;;;;;;;;;;;;;;;;;;6269005;22;19929;-93
2023/04/03 21:32:49;;;;;;;;;;;;;;;;;;6242936;22;19993;-94
2023/04/03 21:35:15;;;;;;;;;;;;;;;;;;6245987;22;20363;-93
2023/04/03 21:37:41;;;;;;;;;;;;;;;;;;6243570;22;19957;-93
2023/04/03 21:40:07;;;;;;;;;;;;;;;;;;6242706;22;19919;-93
2023/04/03 21:42:33;;;;;;;;;;;;;;;;;;6244232;22;19923;-93
2023/04/03 21:44:59;;;;;;;;;;;;;;;;;;6245966;22;19919;-93
2023/04/03 21:47:25;;;;;;;;;;;;;;;;;;6241051;22;19968;-93
2023/04/03 21:49:52;;;;;;;;;;;;;;;;;;6241756;22;19930;-93
2023/04/03 21:52:18;;;;;;;;;;;;;;;;;;6243264;22;19945;-92
2023/04/03 21:54:44;;;;;;;;;;;;;;;;;;6245410;22;19919;-93
2023/04/03 21:57:10;;;;;;;;;;;;;;;;;;6240569;22;19991;-93